• Join FlightAware (Why Join?)
  • Login
  • US Flag 
02:05PM EST


 

Airport Tracker/Info


-or-


 

Live Flight TrackerFlight Track Log ✈ UAL4849 ✈ 23-Apr-2013 ✈ KROC - KEWR

Flight Track Log - Related Links

Times and Time Zones

All times are in EDT time to prevent confusion due to time zone crossing. See the UAL4849 flight status page for this flight to view local times or setup timezone preferences in your user account.

Time Position Orientation Groundspeed Altitude Reporting Facility
EDT Latitude Longitude Course Direction KTS MPH feet Rate Location/Type
10:30AM 43.0994 -77.6914 158° South 119 137 1,200  Level Cleveland Center
10:31AM 43.0761 -77.6783 158° South 137 158 2,100 1,320 Climbing Cleveland Center
10:33AM 43.0164 -77.6214 145° Southeast 162 186 4,500 1,320 Climbing Cleveland Center
10:34AM 42.9900 -77.5744 128° Southeast 162 186 5,700 1,200 Climbing Cleveland Center
10:35AM 42.9761 -77.5156 108° East 157 181 6,900 1,140 Climbing Cleveland Center
10:36AM 42.9556 -77.4514 114° Southeast 170 196 8,000 1,080 Climbing Cleveland Center
10:37AM 42.9350 -77.3842 113° Southeast 181 208 9,100 1,080 Climbing Cleveland Center
10:38AM 42.9161 -77.3114 109° East 192 221 10,200 1,020 Climbing Cleveland Center
10:39AM 42.8956 -77.2417 112° Southeast 197 227 11,200 840 Climbing Cleveland Center
10:41AM 42.8489 -77.0756 111° Southeast 203 234 13,000 540 Climbing New York Center
10:42AM 42.8222 -76.9881 113° Southeast 225 259 13,000 -60 Level New York Center
10:43AM 42.7853 -76.9025 120° Southeast 242 278 12,900 -60 Descending New York Center
10:44AM 42.7458 -76.8142 121° Southeast 267 307 12,900  Level New York Center
10:45AM 42.7067 -76.7289 122° Southeast 272 313 13,000  Climbing New York Center
10:46AM 42.6672 -76.6406 121° Southeast 272 313 13,000  Level New York Center
10:47AM 42.6492 -76.6044 124° Southeast 270 311 13,000 60 Level Boston Center
10:48AM 42.6086 -76.5197 123° Southeast 270 311 13,100  Climbing Boston Center
10:49AM 42.5700 -76.4297 120° Southeast 270 311 13,100  Level Boston Center
10:50AM 42.5294 -76.3397 121° Southeast 270 311 13,100  Level Boston Center
10:51AM 42.4908 -76.2500 120° Southeast 270 311 13,100  Level Boston Center
10:52AM 42.4481 -76.1547 121° Southeast 270 311 13,100  Level Boston Center
10:53AM 42.4050 -76.0619 122° Southeast 275 316 13,100  Level Boston Center
10:54AM 42.3681 -75.9783 121° Southeast 275 316 13,100  Level Boston Center
10:55AM 42.3250 -75.8889 123° Southeast 275 316 13,100  Level Boston Center
10:56AM 42.2881 -75.8053 121° Southeast 275 316 13,100  Level Boston Center
10:57AM 42.2508 -75.7192 120° Southeast 280 322 13,100  Level Boston Center
10:58AM 42.2094 -75.6331 123° Southeast 280 322 13,100  Level Boston Center
10:59AM 42.1703 -75.5442 121° Southeast 280 322 13,100  Level Boston Center
11:00AM 42.1308 -75.4608 123° Southeast 280 322 13,100  Level Boston Center
11:01AM 42.0914 -75.3722 121° Southeast 280 322 13,100  Level Boston Center
11:02AM 42.0500 -75.2864 123° Southeast 280 322 13,100  Level Boston Center
11:03AM 42.0189 -75.1928 114° Southeast 280 322 13,100  Level Boston Center
11:04AM 41.9775 -75.0933 119° Southeast 270 311 13,100 -60 Level Boston Center
11:05AM 41.9481 -75.0083 115° Southeast 270 311 13,000 -60 Descending Boston Center
11:06AM 41.9086 -74.9089 118° Southeast 275 316 13,000 -540 Level Boston Center
11:07AM 41.8622 -74.8403 132° Southeast 275 316 12,000 -1,260 Descending Boston Center
11:08AM 41.8011 -74.7683 139° Southeast 269 310 10,500 -1,440 Descending Boston Center
11:09AM 41.7525 -74.7053 136° Southeast 276 318 9,200 -1,380 Descending Boston Center
11:10AM 41.6847 -74.6528 150° Southeast 270 311 7,800 -1,080 Descending Boston Center
11:11AM 41.6244 -74.6397 171° South 246 283 7,100 -660 Descending Boston Center
11:12AM 41.5519 -74.6233 170° South 246 283 6,500 -540 Descending Boston Center
11:13AM 41.4917 -74.6128 173° South 246 283 6,100 -240 Descending Boston Center
11:14AM 41.4294 -74.5969 169° South 235 270 6,100 -60 Level Boston Center
11:15AM 41.3167 -74.6167 187° South 225 259 6,000 -60 Descending New York TRACON
11:16AM 41.2667 -74.6167 180° South 228 262 6,000  Level New York TRACON
11:17AM 41.2000 -74.6167 180° South 224 258 6,000  Level New York TRACON
11:18AM 41.1333 -74.6000 169° South 223 257 6,000  Level New York TRACON
11:19AM 41.1000 -74.5333 124° Southeast 221 254 6,000  Level New York TRACON
11:20AM 41.0500 -74.5500 194° South 221 254 6,000  Level New York TRACON
11:21AM 40.9833 -74.5667 191° South 214 246 6,000  Level New York TRACON
11:22AM 40.9167 -74.5833 191° South 216 249 6,000  Level New York TRACON
11:23AM 40.8667 -74.6000 194° South 217 250 6,000  Level New York TRACON
11:24AM 40.8000 -74.6000 180° South 216 249 6,000  Level New York TRACON
11:25AM 40.7500 -74.6000 180° South 216 249 6,000 -120 Level New York TRACON
11:26AM 40.6833 -74.6000 180° South 219 252 5,800 -540 Descending New York TRACON
11:27AM 40.6167 -74.6000 180° South 219 252 5,000 -420 Descending New York TRACON
11:28AM 40.5667 -74.6000 180° South 224 258 5,000  Level New York TRACON
11:29AM 40.5167 -74.6333 207° Southwest 233 268 5,000  Level New York TRACON
11:30AM 40.4667 -74.6833 217° Southwest 232 267 5,000  Level New York TRACON
11:31AM 40.4000 -74.6667 169° South 218 251 5,000  Level New York TRACON
11:32AM 40.3667 -74.6333 143° Southeast 187 215 5,000  Level New York TRACON
11:33AM 40.3167 -74.6000 153° Southeast 172 198 5,000 -300 Level New York TRACON
11:34AM 40.3000 -74.5500 114° Southeast 186 214 4,500 -540 Descending New York TRACON
11:35AM 40.3167 -74.4833 72° East 174 200 4,000 -540 Descending New York TRACON
11:36AM 40.3500 -74.4333 49° Northeast 172 198 3,400 -480 Descending New York TRACON
11:37AM 40.3833 -74.3833 49° Northeast 163 188 3,000 -240 Descending New York TRACON
11:38AM 40.4167 -74.3500 37° Northeast 161 185 3,000  Level New York TRACON
11:39AM 40.4500 -74.3167 37° Northeast 159 183 3,000  Level New York TRACON
11:40AM 40.4833 -74.2833 37° Northeast 165 190 3,000  Level New York TRACON
11:41AM 40.5333 -74.2667 14° North 166 191 3,000  Level New York TRACON